createdAt,value
2018-03-16T00:01:01.953Z,75.20
2018-03-16T00:03:29.490Z,75.20
2018-03-16T00:05:57.781Z,75.60
2018-03-16T00:08:26.920Z,75.60
2018-03-16T00:10:54.464Z,75.30
2018-03-16T00:13:22.197Z,75.80
2018-03-16T00:15:51.480Z,75.80
2018-03-16T00:18:19.774Z,75.60
2018-03-16T00:20:47.315Z,75.50
2018-03-16T00:23:16.448Z,76.20
2018-03-16T00:25:43.985Z,76.10
2018-03-16T00:35:00.142Z,76.10
2018-03-16T00:37:27.676Z,76.10
2018-03-16T00:39:55.984Z,75.70
2018-03-16T00:42:23.848Z,75.70
2018-03-16T00:44:51.393Z,75.80
2018-03-16T00:47:19.364Z,76.20
2018-03-16T00:49:46.972Z,75.90
2018-03-16T00:52:14.512Z,75.60
2018-03-16T00:54:42.048Z,76.00
2018-03-16T00:57:09.750Z,76.30
2018-03-16T00:59:37.286Z,75.20
2018-03-16T01:02:04.818Z,75.80
2018-03-16T01:04:32.460Z,76.10
2018-03-16T01:07:00.807Z,75.50
2018-03-16T01:09:28.534Z,75.50
2018-03-16T01:11:56.234Z,75.70
2018-03-16T01:14:23.778Z,76.10
2018-03-16T01:16:51.323Z,75.60
2018-03-16T01:19:18.992Z,75.80
2018-03-16T01:21:46.532Z,75.70
2018-03-16T01:24:14.064Z,76.00
2018-03-16T01:26:42.418Z,75.70
2018-03-16T01:29:09.952Z,75.70
2018-03-16T01:31:37.584Z,75.00
2018-03-16T01:34:05.197Z,75.00
2018-03-16T01:36:32.727Z,75.10
2018-03-16T01:39:00.262Z,75.00
2018-03-16T01:41:27.956Z,74.70
2018-03-16T01:43:55.597Z,75.10
2018-03-16T01:46:23.139Z,75.80
2018-03-16T01:48:51.138Z,75.00
2018-03-16T01:51:18.704Z,75.20
2018-03-16T01:53:46.270Z,75.10
2018-03-16T01:56:14.271Z,75.00
2018-03-16T01:58:42.582Z,75.10
2018-03-16T02:01:10.120Z,75.10
2018-03-16T02:03:38.749Z,75.30
2018-03-16T02:06:06.338Z,75.30
2018-03-16T02:08:33.890Z,75.00
2018-03-16T02:11:01.573Z,75.20
2018-03-16T02:13:29.141Z,74.40
2018-03-16T02:15:57.622Z,74.80
2018-03-16T02:18:26.241Z,74.70
2018-03-16T02:20:53.784Z,74.70
2018-03-16T02:23:21.342Z,74.80
2018-03-16T02:25:49.061Z,74.80
2018-03-16T02:28:16.622Z,74.70
2018-03-16T02:30:44.167Z,74.50
2018-03-16T02:33:11.927Z,74.90
2018-03-16T02:35:39.465Z,75.20
2018-03-16T02:38:07.004Z,74.70
2018-03-16T02:40:34.708Z,74.40
2018-03-16T02:43:02.239Z,74.20
2018-03-16T02:45:29.774Z,74.00
2018-03-16T02:47:58.496Z,74.00
2018-03-16T02:50:26.374Z,74.00
2018-03-16T02:52:53.917Z,74.10
2018-03-16T02:55:21.443Z,74.30
2018-03-16T02:57:49.422Z,73.90
2018-03-16T03:00:16.987Z,73.90
2018-03-16T03:02:44.530Z,73.50
2018-03-16T03:05:12.993Z,73.80
2018-03-16T03:07:40.550Z,73.70
2018-03-16T03:10:08.290Z,73.80
2018-03-16T03:12:36.028Z,73.90
2018-03-16T03:15:03.594Z,73.40
2018-03-16T03:17:31.135Z,73.40
2018-03-16T03:19:58.756Z,73.80
2018-03-16T03:22:26.289Z,73.40
2018-03-16T03:24:53.823Z,73.70
2018-03-16T03:27:21.521Z,74.10
2018-03-16T03:29:49.216Z,73.70
2018-03-16T03:32:17.628Z,73.70
2018-03-16T03:34:45.313Z,73.60
2018-03-16T03:37:12.873Z,73.50
2018-03-16T03:39:40.434Z,73.80
2018-03-16T03:42:08.486Z,73.80
2018-03-16T03:44:36.042Z,73.90
2018-03-16T03:47:03.603Z,73.20
2018-03-16T03:49:31.402Z,73.20
2018-03-16T03:51:58.951Z,73.50
2018-03-16T03:54:26.500Z,73.20
2018-03-16T03:56:54.265Z,73.10
2018-03-16T03:59:21.811Z,73.80
2018-03-16T04:01:49.346Z,73.70
2018-03-16T04:04:18.842Z,73.70
2018-03-16T04:06:46.390Z,73.80
2018-03-16T04:09:14.686Z,74.00
2018-03-16T04:11:42.576Z,74.00
2018-03-16T04:14:10.130Z,73.70
2018-03-16T04:16:37.696Z,73.40
2018-03-16T04:19:06.456Z,73.70
2018-03-16T04:21:33.978Z,73.30
2018-03-16T04:24:01.506Z,73.00
2018-03-16T04:26:29.539Z,73.40
2018-03-16T04:28:57.851Z,72.50
2018-03-16T04:31:25.391Z,72.40
2018-03-16T04:33:53.101Z,73.10
2018-03-16T04:36:20.641Z,72.60
2018-03-16T04:38:48.169Z,73.10
2018-03-16T04:41:16.116Z,73.00
2018-03-16T04:43:44.406Z,73.80
2018-03-16T04:46:11.954Z,73.70
2018-03-16T04:48:40.344Z,73.80
2018-03-16T04:51:07.890Z,73.70
2018-03-16T04:53:36.186Z,73.90
2018-03-16T04:56:04.310Z,73.90
2018-03-16T04:58:31.898Z,73.40
2018-03-16T05:00:59.438Z,73.70
2018-03-16T05:03:27.417Z,73.90
2018-03-16T05:05:55.999Z,73.70
2018-03-16T05:08:24.320Z,74.20
2018-03-16T05:10:51.956Z,74.10
2018-03-16T05:13:20.265Z,74.70
2018-03-16T05:15:47.794Z,74.60
2018-03-16T05:18:15.590Z,73.60
2018-03-16T05:20:43.114Z,73.90
2018-03-16T05:23:11.424Z,74.30
2018-03-16T05:25:39.011Z,74.20
2018-03-16T05:28:06.546Z,74.30
2018-03-16T05:30:34.112Z,74.30
2018-03-16T05:33:01.757Z,74.20
2018-03-16T05:35:29.519Z,74.30
2018-03-16T05:37:57.074Z,73.80
2018-03-16T05:40:24.696Z,74.20
2018-03-16T05:42:52.249Z,74.60
2018-03-16T05:45:19.815Z,74.30
2018-03-16T05:47:48.373Z,74.80
2018-03-16T05:50:15.927Z,74.80
2018-03-16T05:52:43.502Z,74.70
2018-03-16T05:55:11.102Z,74.40
2018-03-16T05:57:39.411Z,74.70
2018-03-16T06:00:06.975Z,74.70
2018-03-16T06:02:34.586Z,75.00
2018-03-16T06:05:02.143Z,74.40
2018-03-16T06:07:31.254Z,75.00
2018-03-16T06:10:00.395Z,74.40
2018-03-16T06:12:27.945Z,74.30
2018-03-16T06:14:55.496Z,74.40
2018-03-16T06:17:26.162Z,73.90
2018-03-16T06:19:53.860Z,73.50
2018-03-16T06:22:22.177Z,73.50
2018-03-16T06:24:49.728Z,73.50
2018-03-16T06:27:17.492Z,73.20
2018-03-16T06:29:45.282Z,73.60
2018-03-16T06:32:12.833Z,73.30
2018-03-16T06:34:40.610Z,72.90
2018-03-16T06:37:08.162Z,72.70
2018-03-16T06:39:36.878Z,72.70
2018-03-16T06:42:05.690Z,72.00
2018-03-16T06:44:33.268Z,71.80
2018-03-16T06:47:00.832Z,71.70
2018-03-16T06:49:29.178Z,72.20
2018-03-16T06:51:57.120Z,71.70
2018-03-16T06:54:25.459Z,71.30
2018-03-16T06:56:53.093Z,71.30
2018-03-16T06:59:23.374Z,70.60
2018-03-16T07:01:50.919Z,70.60
2018-03-16T07:04:18.466Z,70.40
2018-03-16T07:06:46.361Z,70.70
2018-03-16T07:09:13.921Z,70.70
2018-03-16T07:11:42.983Z,71.10
2018-03-16T07:14:10.690Z,71.00
2018-03-16T07:16:38.243Z,71.40
2018-03-16T07:19:05.796Z,71.30
2018-03-16T07:21:34.540Z,70.60
2018-03-16T07:24:02.099Z,70.00
2018-03-16T07:26:29.652Z,69.40
2018-03-16T07:28:59.202Z,68.50
2018-03-16T07:31:27.710Z,68.60
2018-03-16T07:33:56.237Z,67.40
2018-03-16T07:36:25.052Z,65.50
2018-03-16T07:38:52.599Z,64.30
2018-03-16T07:41:20.202Z,63.80
2018-03-16T07:43:48.862Z,65.40
2018-03-16T07:46:16.415Z,65.40
2018-03-16T07:48:43.985Z,63.20
2018-03-16T07:51:11.854Z,62.20
2018-03-16T07:53:39.410Z,63.00
2018-03-16T07:56:06.959Z,62.10
2018-03-16T07:58:34.530Z,60.10
2018-03-16T08:01:02.785Z,59.90
2018-03-16T08:03:30.351Z,60.00
2018-03-16T08:05:58.326Z,59.40
2018-03-16T08:08:25.879Z,59.20
2018-03-16T08:10:53.437Z,58.40
2018-03-16T08:13:21.034Z,57.60
2018-03-16T08:15:49.358Z,56.80
2018-03-16T08:18:16.902Z,56.70
2018-03-16T08:20:48.206Z,55.70
2018-03-16T08:23:15.756Z,54.90
2018-03-16T08:25:43.302Z,54.00
2018-03-16T08:28:18.658Z,54.70
2018-03-16T08:30:46.214Z,55.20
2018-03-16T08:33:13.778Z,53.80
2018-03-16T08:35:41.377Z,53.40
2018-03-16T08:38:08.970Z,51.40
2018-03-16T08:40:39.756Z,51.10
2018-03-16T08:43:07.341Z,51.10
2018-03-16T08:45:35.157Z,50.50
2018-03-16T08:48:02.705Z,50.80
2018-03-16T08:50:30.264Z,51.10
2018-03-16T08:52:58.200Z,49.60
2018-03-16T08:55:25.750Z,49.40
2018-03-16T08:57:53.299Z,49.00
2018-03-16T09:00:22.896Z,48.70
2018-03-16T09:02:50.464Z,48.70
2018-03-16T09:05:18.786Z,47.50
2018-03-16T09:07:48.824Z,47.50
2018-03-16T09:10:16.398Z,47.60
2018-03-16T09:12:43.946Z,48.00
2018-03-16T09:15:15.309Z,47.00
2018-03-16T09:17:43.641Z,46.30
2018-03-16T09:20:11.190Z,46.30
2018-03-16T09:22:38.885Z,46.90
2018-03-16T09:25:06.446Z,44.80
2018-03-16T09:27:33.997Z,46.00
2018-03-16T09:30:02.002Z,44.90
2018-03-16T09:32:30.895Z,45.00
2018-03-16T09:34:58.454Z,43.70
2018-03-16T09:37:29.639Z,43.90
2018-03-16T09:39:57.223Z,44.00
2018-03-16T09:42:24.785Z,43.40
2018-03-16T09:44:55.859Z,42.50
2018-03-16T09:47:24.283Z,41.90
2018-03-16T09:49:51.870Z,41.80
2018-03-16T09:52:19.467Z,42.60
2018-03-16T09:54:59.466Z,44.60
2018-03-16T09:57:27.658Z,44.60
2018-03-16T10:02:29.399Z,41.30
2018-03-16T10:04:57.211Z,40.60
2018-03-16T10:07:24.795Z,39.50
2018-03-16T10:09:54.011Z,38.30
2018-03-16T10:12:22.020Z,38.30
2018-03-16T10:14:49.582Z,37.60
2018-03-16T10:17:17.325Z,37.00
2018-03-16T10:19:45.913Z,37.60
2018-03-16T10:22:13.490Z,37.00
2018-03-16T10:24:41.043Z,38.80
2018-03-16T10:27:08.630Z,39.20
2018-03-16T10:29:36.954Z,40.00
2018-03-16T10:32:04.506Z,39.90
2018-03-16T10:34:32.221Z,41.10
2018-03-16T10:36:59.764Z,42.50
2018-03-16T10:39:28.970Z,40.10
2018-03-16T10:41:57.482Z,39.20
2018-03-16T10:44:25.302Z,39.70
2018-03-16T10:46:52.863Z,40.70
2018-03-16T10:49:20.634Z,40.90
2018-03-16T10:51:48.175Z,41.50
2018-03-16T10:54:15.804Z,41.90
2018-03-16T10:56:43.499Z,41.10
2018-03-16T10:59:11.050Z,40.70
2018-03-16T11:01:44.478Z,40.00
2018-03-16T11:04:14.516Z,40.90
2018-03-16T11:06:47.166Z,40.00
2018-03-16T11:09:14.733Z,40.10
2018-03-16T11:11:42.300Z,40.50
2018-03-16T11:14:09.982Z,41.10
2018-03-16T11:16:38.305Z,41.70
2018-03-16T11:19:05.861Z,41.60
2018-03-16T11:21:33.461Z,42.20
2018-03-16T11:24:02.511Z,39.30
2018-03-16T11:26:30.052Z,39.20
2018-03-16T11:28:57.982Z,39.10
2018-03-16T11:31:25.841Z,38.50
2018-03-16T11:33:53.382Z,36.60
2018-03-16T11:36:21.394Z,35.50
2018-03-16T11:38:49.820Z,36.10
2018-03-16T11:41:17.427Z,35.30
2018-03-16T11:43:45.188Z,33.20
2018-03-16T11:46:12.736Z,32.80
2018-03-16T11:48:40.278Z,32.60
2018-03-16T11:51:10.850Z,33.60
2018-03-16T11:53:39.166Z,35.50
2018-03-16T11:56:06.757Z,35.40
2018-03-16T11:58:35.627Z,35.50
2018-03-16T12:01:06.567Z,34.50
2018-03-16T12:03:34.105Z,32.60
2018-03-16T12:06:01.838Z,31.50
2018-03-16T12:08:30.168Z,34.70
2018-03-16T12:10:57.792Z,34.70
2018-03-16T12:13:27.473Z,37.80
2018-03-16T12:15:55.018Z,37.80
2018-03-16T12:18:22.556Z,39.30
2018-03-16T12:20:50.261Z,35.80
2018-03-16T12:23:18.572Z,34.20
2018-03-16T12:25:46.289Z,34.20
2018-03-16T12:28:13.838Z,34.80
2018-03-16T12:30:41.413Z,33.60
2018-03-16T12:33:09.003Z,33.90
2018-03-16T12:35:36.555Z,32.60
2018-03-16T12:38:04.868Z,28.40
2018-03-16T12:40:32.462Z,28.30
2018-03-16T12:43:00.005Z,27.40
2018-03-16T12:45:27.560Z,24.70
2018-03-16T12:47:55.730Z,25.10
2018-03-16T12:50:23.258Z,23.60
2018-03-16T12:52:50.798Z,23.50
2018-03-16T12:55:19.989Z,23.70
2018-03-16T12:57:48.310Z,24.40
2018-03-16T13:00:15.866Z,24.40
2018-03-16T13:02:45.010Z,23.50
2018-03-16T13:05:12.607Z,21.60
2018-03-16T13:07:40.161Z,20.70
2018-03-16T13:10:07.708Z,21.50
2018-03-16T13:12:36.057Z,24.40
2018-03-16T13:15:03.613Z,24.40
2018-03-16T13:17:31.150Z,23.30
2018-03-16T13:19:58.735Z,19.10
2018-03-16T13:22:26.294Z,19.50
2018-03-16T13:24:53.838Z,22.80
2018-03-16T13:27:21.773Z,22.40
2018-03-16T13:29:49.320Z,21.70
2018-03-16T13:32:16.873Z,23.60
2018-03-16T13:34:45.230Z,25.30
2018-03-16T13:37:14.290Z,25.80
2018-03-16T13:39:45.058Z,25.80
2018-03-16T13:42:15.069Z,28.70
2018-03-16T13:44:42.618Z,28.40
2018-03-16T13:47:13.737Z,29.50
2018-03-16T13:49:41.258Z,27.10
2018-03-16T13:52:08.851Z,25.80
2018-03-16T13:54:36.638Z,24.80
2018-03-16T13:57:04.201Z,21.70
2018-03-16T13:59:32.986Z,22.10
2018-03-16T14:02:00.667Z,21.90
2018-03-16T14:04:28.217Z,20.30
2018-03-16T14:06:55.766Z,20.20
2018-03-16T14:09:23.407Z,20.00
2018-03-16T14:11:50.961Z,19.90
2018-03-16T14:14:19.386Z,19.70
2018-03-16T14:16:47.252Z,21.30
2018-03-16T14:19:14.859Z,23.40
2018-03-16T14:21:44.906Z,26.00
2018-03-16T14:24:12.691Z,27.80
2018-03-16T14:26:40.241Z,23.60
2018-03-16T14:29:07.822Z,23.10
2018-03-16T14:31:35.898Z,22.20
2018-03-16T14:34:04.212Z,19.80
2018-03-16T14:36:31.758Z,19.10
2018-03-16T14:38:59.547Z,19.10
2018-03-16T14:41:27.550Z,18.30
2018-03-16T14:43:55.089Z,19.50
2018-03-16T14:46:23.413Z,20.70
2018-03-16T14:48:55.550Z,19.40
2018-03-16T14:51:26.277Z,19.40
2018-03-16T14:53:53.825Z,20.90
2018-03-16T14:56:25.195Z,23.70
2018-03-16T14:58:52.734Z,25.00
2018-03-16T15:01:20.279Z,26.10
2018-03-16T15:03:51.041Z,26.90
2018-03-16T15:06:19.354Z,28.80
2018-03-16T15:08:47.668Z,25.80
2018-03-16T15:11:15.487Z,25.70
2018-03-16T15:13:43.034Z,23.90
2018-03-16T15:16:10.590Z,25.10
2018-03-16T15:18:38.653Z,26.20
2018-03-16T15:21:06.217Z,26.70
2018-03-16T15:23:33.763Z,26.80
2018-03-16T15:26:01.330Z,29.50
2018-03-16T15:28:28.878Z,28.70
2018-03-16T15:30:58.149Z,28.40
2018-03-16T15:33:26.075Z,28.70
2018-03-16T15:35:53.627Z,29.40
2018-03-16T15:38:21.354Z,29.60
2018-03-16T15:40:52.830Z,30.30
2018-03-16T15:43:20.717Z,32.40
2018-03-16T15:45:48.330Z,32.90
2018-03-16T15:48:15.874Z,33.30
2018-03-16T15:50:45.118Z,34.30
2018-03-16T15:53:12.873Z,33.80
2018-03-16T15:55:40.421Z,32.50
2018-03-16T15:58:07.997Z,29.90
2018-03-16T16:00:36.558Z,30.50
2018-03-16T16:03:04.106Z,30.90
2018-03-16T16:05:31.762Z,32.60
2018-03-16T16:07:59.312Z,34.50
2018-03-16T16:10:26.863Z,35.60
2018-03-16T16:12:55.366Z,37.50
2018-03-16T16:15:22.914Z,37.60
2018-03-16T16:17:50.466Z,38.30
2018-03-16T16:20:18.434Z,39.30
2018-03-16T16:22:46.755Z,39.70
2018-03-16T16:25:14.319Z,39.60
2018-03-16T16:27:42.198Z,40.80
2018-03-16T16:30:09.750Z,41.50
2018-03-16T16:32:37.482Z,42.00
2018-03-16T16:35:05.074Z,41.70
2018-03-16T16:37:32.651Z,40.50
2018-03-16T16:40:00.209Z,40.70
2018-03-16T16:42:27.809Z,40.40
2018-03-16T16:44:55.378Z,40.40
2018-03-16T16:47:22.921Z,40.60
2018-03-16T16:49:51.294Z,41.40
2018-03-16T16:52:18.884Z,41.40
2018-03-16T16:54:46.523Z,42.40
2018-03-16T16:57:14.882Z,41.60
2018-03-16T16:59:42.436Z,41.60
2018-03-16T17:02:09.986Z,41.90
2018-03-16T17:04:37.738Z,42.00
2018-03-16T17:07:05.281Z,42.50
2018-03-16T17:09:35.861Z,43.40
2018-03-16T17:12:06.260Z,44.00
2018-03-16T17:14:34.132Z,45.20
2018-03-16T17:17:01.757Z,44.50
2018-03-16T17:19:29.281Z,44.90
2018-03-16T17:22:00.698Z,46.80
2018-03-16T17:24:28.657Z,46.80
2018-03-16T17:26:56.206Z,45.60
2018-03-16T17:29:23.757Z,46.00
2018-03-16T17:31:51.349Z,46.80
2018-03-16T17:34:19.666Z,47.40
2018-03-16T17:36:47.222Z,47.40
2018-03-16T17:39:14.904Z,47.60
2018-03-16T17:41:44.937Z,47.70
2018-03-16T17:44:12.502Z,48.80
2018-03-16T17:46:43.145Z,48.40
2018-03-16T17:49:10.698Z,48.40
2018-03-16T17:51:38.238Z,48.90
2018-03-16T17:54:05.897Z,48.40
2018-03-16T17:56:33.443Z,49.20
2018-03-16T17:59:00.995Z,49.60
2018-03-16T18:01:28.697Z,49.40
2018-03-16T18:03:56.243Z,50.70
2018-03-16T18:06:23.786Z,50.30
2018-03-16T18:08:51.694Z,50.30
2018-03-16T18:11:19.314Z,50.10
2018-03-16T18:13:46.858Z,50.60
2018-03-16T18:16:15.222Z,51.10
2018-03-16T18:18:42.771Z,51.10
2018-03-16T18:21:13.692Z,51.10
2018-03-16T18:23:41.494Z,51.60
2018-03-16T18:26:09.217Z,51.30
2018-03-16T18:28:36.786Z,51.80
2018-03-16T18:31:05.773Z,51.90
2018-03-16T18:33:33.508Z,52.30
2018-03-16T18:36:01.064Z,52.00
2018-03-16T18:38:28.632Z,52.20
2018-03-16T18:41:04.823Z,52.50
2018-03-16T18:43:32.386Z,53.20
2018-03-16T18:46:01.564Z,53.00
2018-03-16T18:48:29.444Z,53.60
2018-03-16T18:50:57.968Z,53.00
2018-03-16T18:53:25.522Z,52.70
2018-03-16T18:55:53.451Z,53.10
2018-03-16T18:58:21.278Z,53.60
2018-03-16T19:00:48.851Z,53.50
2018-03-16T19:03:16.815Z,53.40
2018-03-16T19:05:44.386Z,53.60
2018-03-16T19:08:11.940Z,54.30
2018-03-16T19:10:39.829Z,54.20
2018-03-16T19:13:07.386Z,54.10
2018-03-16T19:15:34.939Z,54.30
2018-03-16T19:18:02.704Z,54.40
2018-03-16T19:20:30.450Z,54.10
2018-03-16T19:22:57.999Z,54.40
2018-03-16T19:25:25.833Z,55.00
2018-03-16T19:27:54.150Z,55.10
2018-03-16T19:30:24.577Z,55.00
2018-03-16T19:32:55.823Z,55.20
2018-03-16T19:35:34.090Z,55.50
2018-03-16T19:38:05.182Z,55.50
2018-03-16T19:40:39.282Z,55.30
2018-03-16T19:43:07.401Z,55.70
2018-03-16T19:45:35.242Z,55.90
2018-03-16T19:48:02.795Z,56.20
2018-03-16T19:50:30.678Z,56.50
2018-03-16T19:52:58.594Z,56.60
2018-03-16T19:55:27.184Z,57.00
2018-03-16T19:57:54.927Z,57.00
2018-03-16T20:00:23.236Z,57.10
2018-03-16T20:02:50.787Z,57.10
2018-03-16T20:05:18.471Z,57.40
2018-03-16T20:07:46.173Z,57.70
2018-03-16T20:10:13.722Z,57.40
2018-03-16T20:12:41.638Z,57.90
2018-03-16T20:15:09.177Z,58.20
2018-03-16T20:17:37.491Z,58.40
2018-03-16T20:20:05.188Z,58.30
2018-03-16T20:22:32.794Z,58.20
2018-03-16T20:25:00.445Z,58.70
2018-03-16T20:27:28.983Z,58.90
2018-03-16T20:29:56.546Z,58.90
2018-03-16T20:32:24.093Z,58.60
2018-03-16T20:34:51.770Z,58.50
2018-03-16T20:37:19.339Z,58.70
2018-03-16T20:39:46.887Z,59.00
2018-03-16T20:42:14.493Z,59.10
2018-03-16T20:44:42.809Z,59.90
2018-03-16T20:47:10.470Z,59.90
2018-03-16T20:49:41.206Z,59.60
2018-03-16T20:52:08.769Z,60.00
2018-03-16T20:54:36.318Z,59.90
2018-03-16T20:57:03.925Z,59.90
2018-03-16T20:59:31.474Z,60.00
2018-03-16T21:01:59.375Z,60.50
2018-03-16T21:04:28.016Z,61.50
2018-03-16T21:06:55.566Z,61.60
2018-03-16T21:09:23.190Z,60.80
2018-03-16T21:11:50.907Z,61.00
2018-03-16T21:14:19.283Z,61.40
2018-03-16T21:16:46.850Z,61.30
2018-03-16T21:19:14.483Z,61.60
2018-03-16T21:21:46.566Z,61.90
2018-03-16T21:24:14.116Z,61.80
2018-03-16T21:26:41.855Z,62.20
2018-03-16T21:29:09.414Z,61.50
2018-03-16T21:31:42.034Z,61.60
2018-03-16T21:34:14.154Z,61.50
2018-03-16T21:36:41.707Z,61.10
2018-03-16T21:39:09.264Z,62.20
2018-03-16T21:41:36.858Z,62.30
2018-03-16T21:44:04.403Z,62.60
2018-03-16T21:46:31.951Z,62.30
2018-03-16T21:48:59.556Z,61.90
2018-03-16T21:51:27.106Z,61.70
2018-03-16T21:53:54.654Z,62.10
2018-03-16T21:56:22.426Z,61.70
2018-03-16T21:58:49.978Z,62.40
2018-03-16T22:01:17.525Z,62.10
2018-03-16T22:03:45.202Z,62.30
2018-03-16T22:06:12.747Z,62.90
2018-03-16T22:08:40.306Z,62.90
2018-03-16T22:11:10.262Z,62.60
2018-03-16T22:13:38.566Z,62.60
2018-03-16T22:16:06.877Z,63.20
2018-03-16T22:18:34.482Z,63.10
2018-03-16T22:21:03.257Z,62.40
2018-03-16T22:23:32.653Z,63.10
2018-03-16T22:26:02.273Z,64.20
2018-03-16T22:28:29.832Z,63.30
2018-03-16T22:30:58.959Z,63.10
2018-03-16T22:33:26.514Z,63.10
2018-03-16T22:35:54.825Z,64.00
2018-03-16T22:38:22.822Z,64.00
2018-03-16T22:40:50.369Z,63.20
2018-03-16T22:43:17.923Z,63.20
2018-03-16T22:45:45.726Z,63.90
2018-03-16T22:48:14.041Z,65.30
2018-03-16T22:50:41.594Z,64.60
2018-03-16T22:53:09.612Z,65.00
2018-03-16T22:55:37.167Z,64.50
2018-03-16T22:58:04.738Z,66.30
2018-03-16T23:00:32.341Z,65.80
2018-03-16T23:02:59.894Z,65.70
2018-03-16T23:05:28.206Z,65.70
2018-03-16T23:07:55.966Z,65.70
2018-03-16T23:10:23.519Z,65.90
2018-03-16T23:12:51.066Z,65.80
2018-03-16T23:15:18.640Z,66.50
2018-03-16T23:17:46.186Z,66.70
2018-03-16T23:20:13.729Z,65.60
2018-03-16T23:22:42.382Z,65.30
2018-03-16T23:25:09.931Z,65.30
2018-03-16T23:27:37.480Z,65.40
2018-03-16T23:30:05.261Z,66.40
2018-03-16T23:32:32.817Z,66.90
2018-03-16T23:35:00.371Z,66.20
2018-03-16T23:37:28.142Z,67.10
2018-03-16T23:39:55.730Z,66.90
2018-03-16T23:42:23.360Z,67.20
2018-03-16T23:44:51.386Z,66.80
2018-03-16T23:47:19.738Z,65.70
2018-03-16T23:49:47.289Z,65.70
2018-03-16T23:52:15.757Z,66.50
2018-03-16T23:54:43.317Z,66.10
2018-03-16T23:57:12.380Z,66.20
2018-03-16T23:59:40.174Z,66.20
